Weather at Meiktila Air Base

Public forecast

Using degrees Celsius for public forecast. Weather courtesy of forecast.io.

Closest aviation weather report (METAR) to Meiktila Air Base

Closest report is Mandalay International Airport, 49.2 nm (91.1 km) N. Retrieved 2020/09/26 09:30 UTC (0 seconds ago):

VYMD 260930Z 14010KT 7000 SCT020 FEW025CB 36/25 Q1003

Closest aviation forecast (TAF) to Meiktila Air Base

Closest forecast is Mandalay International Airport, 49.2 nm (91.1 km) N. Retrieved 2020/09/26 06:00 UTC (3 hours ago):

TAF VYMD 260500Z 2606/2706 18010KT 8000 BKN020 FEW025CB TEMPO 2606/2612 15010G20KT 5000 -TSRA BKN018 FEW020CB BKN090